Time;durP1;ratioP1;P1;durP2;ratioP2;P2;SDS_P1;SDS_P2;PMS_P1;PMS_P2;Temp;Humidity;BMP_temperature;BMP_pressure;BME280_temperature;BME280_humidity;BME280_pressure;Samples;Min_cycle;Max_cycle;Signal;HPM_P1;HPM_P2
2022/06/02 00:00:07;;;;;;;28.80;27.30;;;;;;;20.74;45.14;101848.88;5034983;28;20099;-81
2022/06/02 00:03:09;;;;;;;27.90;26.50;;;;;;;20.72;45.21;101840.09;5030910;28;20041;-80
2022/06/02 00:05:34;;;;;;;28.77;27.27;;;;;;;20.72;45.14;101840.09;5034544;28;20033;-80
2022/06/02 00:08:18;;;;;;;29.98;28.30;;;;;;;20.71;44.79;101843.09;5033867;28;20381;-81
2022/06/02 00:10:52;;;;;;;29.00;27.50;;;;;;;20.70;45.16;101842.28;5035054;28;20021;-80
2022/06/02 00:13:32;;;;;;;28.60;27.20;;;;;;;20.70;45.30;101839.56;5034918;28;20482;-79
2022/06/02 00:16:25;;;;;;;30.33;28.73;;;;;;;20.70;44.78;101844.22;5035018;28;20026;-80
2022/06/02 00:18:58;;;;;;;29.98;28.38;;;;;;;20.68;44.99;101844.50;5035076;28;20122;-79
2022/06/02 00:21:49;;;;;;;27.70;26.23;;;;;;;20.68;44.93;101846.44;5034946;28;20029;-80
2022/06/02 00:25:05;;;;;;;28.48;27.08;;;;;;;20.67;45.18;101844.81;5034690;28;20030;-79
2022/06/02 00:27:47;;;;;;;30.85;29.10;;;;;;;20.65;45.17;101853.31;5033674;28;20116;-79
2022/06/02 00:30:24;;;;;;;29.98;28.25;;;;;;;20.65;44.99;101857.97;5039483;28;20026;-79
2022/06/02 00:33:28;;;;;;;30.15;28.58;;;;;;;20.64;45.10;101857.16;5036200;28;20021;-80
2022/06/02 00:36:05;;;;;;;30.08;28.25;;;;;;;20.63;45.16;101857.44;5035097;28;20034;-80
2022/06/02 00:38:39;;;;;;;28.70;27.23;;;;;;;20.63;45.27;101860.19;5033160;28;20493;-79
2022/06/02 00:41:22;;;;;;;29.58;27.98;;;;;;;20.62;44.85;101859.38;5035326;28;20076;-80
2022/06/02 00:43:50;;;;;;;28.60;27.10;;;;;;;20.61;44.93;101851.41;5033438;28;20032;-80
2022/06/02 00:46:31;;;;;;;27.92;26.50;;;;;;;20.61;44.90;101856.91;5034447;28;20029;-80
2022/06/02 00:49:08;;;;;;;30.95;29.23;;;;;;;20.60;45.13;101847.84;5034085;28;20496;-79
2022/06/02 00:51:45;;;;;;;28.02;26.63;;;;;;;20.59;45.49;101859.09;5033003;28;20033;-80
2022/06/02 00:57:30;;;;;;;28.90;27.25;;;;;;;20.58;45.20;101852.78;5035067;28;20047;-81
2022/06/02 01:00:08;;;;;;;29.10;27.60;;;;;;;20.58;45.24;101857.47;5034738;28;20037;-80
2022/06/02 01:02:42;;;;;;;29.85;28.20;;;;;;;20.56;45.19;101860.50;5033153;28;20056;-80
2022/06/02 01:05:08;;;;;;;29.27;27.55;;;;;;;20.56;45.01;101865.97;5032421;28;20053;-79
2022/06/02 01:08:08;;;;;;;28.65;27.05;;;;;;;20.53;45.10;101864.59;5032717;28;20065;-81
2022/06/02 01:10:51;;;;;;;28.50;27.00;;;;;;;20.55;45.62;101866.28;5034533;28;20417;-80
2022/06/02 01:13:42;;;;;;;28.00;26.60;;;;;;;20.54;45.14;101862.69;5034185;28;20034;-81
2022/06/02 01:16:18;;;;;;;30.23;28.52;;;;;;;20.54;45.29;101868.19;5033003;28;20029;-80
2022/06/02 01:19:08;;;;;;;29.27;27.73;;;;;;;20.51;45.41;101852.25;5033624;28;20029;-81
2022/06/02 01:21:38;;;;;;;29.48;27.75;;;;;;;20.51;45.48;101858.59;5033497;28;20596;-80
2022/06/02 01:24:26;;;;;;;29.80;28.20;;;;;;;20.51;45.08;101852.25;5033174;28;20382;-80
2022/06/02 01:26:51;;;;;;;27.90;26.48;;;;;;;20.50;45.41;101850.63;5033778;28;20386;-81
2022/06/02 01:29:31;;;;;;;28.27;26.77;;;;;;;20.48;45.37;101853.63;5034319;28;20025;-81
2022/06/02 01:32:02;;;;;;;30.38;28.77;;;;;;;20.49;45.37;101857.22;5032819;28;20029;-80
2022/06/02 01:34:46;;;;;;;29.27;27.67;;;;;;;20.49;45.45;101857.22;5033784;28;20022;-81
2022/06/02 01:37:35;;;;;;;28.33;26.92;;;;;;;20.47;45.22;101860.25;5032614;28;20141;-80
2022/06/02 01:40:24;;;;;;;28.92;27.38;;;;;;;20.47;45.29;101856.69;5033071;28;20046;-80
2022/06/02 01:42:52;;;;;;;28.38;26.85;;;;;;;20.45;45.42;101856.94;5033836;28;20033;-80
2022/06/02 01:45:39;;;;;;;27.65;26.25;;;;;;;20.46;45.21;101853.13;5033844;28;20103;-80
2022/06/02 01:48:29;;;;;;;28.23;26.73;;;;;;;20.46;45.29;101861.34;5033785;28;20040;-80
2022/06/02 01:51:35;;;;;;;29.35;27.75;;;;;;;20.45;45.13;101856.13;5032075;28;20036;-80
2022/06/02 01:54:32;;;;;;;27.63;26.13;;;;;;;20.43;45.07;101850.91;5032052;28;20042;-79
2022/06/02 01:57:42;;;;;;;28.25;26.67;;;;;;;20.43;45.64;101864.63;5033709;28;20033;-79
2022/06/02 02:00:11;;;;;;;29.27;27.67;;;;;;;20.44;45.07;101863.56;5032256;28;20041;-80
2022/06/02 02:03:01;;;;;;;28.40;26.73;;;;;;;20.43;45.32;101869.31;5033185;28;20033;-80
2022/06/02 02:05:46;;;;;;;28.90;27.33;;;;;;;20.41;45.36;101868.78;5032664;28;20163;-83
2022/06/02 02:08:45;;;;;;;29.27;27.70;;;;;;;20.41;45.36;101858.63;5033440;28;20036;-77
2022/06/02 02:11:35;;;;;;;28.88;27.35;;;;;;;20.39;45.68;101865.50;5031838;28;20029;-78
2022/06/02 02:14:19;;;;;;;29.52;27.92;;;;;;;20.39;45.38;101871.81;5033334;28;20083;-81
2022/06/02 02:17:17;;;;;;;28.13;26.65;;;;;;;20.40;45.35;101859.72;5033657;28;20099;-81
2022/06/02 02:20:00;;;;;;;27.83;26.35;;;;;;;20.39;45.56;101865.50;5032546;28;20045;-80
2022/06/02 02:22:46;;;;;;;28.00;26.55;;;;;;;20.38;45.57;101872.09;5032527;28;20099;-80
2022/06/02 02:25:23;;;;;;;29.10;27.50;;;;;;;20.38;45.16;101867.41;5033201;28;20030;-79
2022/06/02 02:28:04;;;;;;;27.73;26.23;;;;;;;20.39;45.42;101873.75;5036539;28;20037;-80
2022/06/02 02:30:49;;;;;;;27.92;26.48;;;;;;;20.39;45.37;101876.50;5042220;28;20060;-80
2022/06/02 02:33:36;;;;;;;29.50;27.90;;;;;;;20.38;45.61;101872.09;5038305;28;20033;-80
2022/06/02 02:36:28;;;;;;;28.95;27.35;;;;;;;20.36;45.38;101875.13;5037183;28;20033;-80
2022/06/02 02:39:29;;;;;;;28.38;26.98;;;;;;;20.36;45.13;101871.53;5036833;28;20044;-81
2022/06/02 02:42:40;;;;;;;27.38;25.90;;;;;;;20.35;45.59;101875.41;5037093;28;20108;-80
2022/06/02 02:45:34;;;;;;;28.38;26.88;;;;;;;20.34;45.75;101879.25;5036419;28;20049;-79
2022/06/02 02:48:05;;;;;;;28.85;27.35;;;;;;;20.34;45.36;101873.75;5035836;28;20111;-81
2022/06/02 02:50:44;;;;;;;28.17;26.67;;;;;;;20.34;45.56;101876.50;5036006;28;20379;-80
2022/06/02 02:53:10;;;;;;;29.80;28.20;;;;;;;20.32;45.70;101882.28;5036946;28;20446;-80
2022/06/02 02:55:42;;;;;;;28.33;26.88;;;;;;;20.31;45.34;101880.63;5036842;28;20061;-80
2022/06/02 02:58:42;;;;;;;28.90;27.40;;;;;;;20.31;45.28;101875.97;5036753;28;20036;-81
2022/06/02 03:01:19;;;;;;;28.10;26.60;;;;;;;20.30;45.46;101889.94;5035452;28;20377;-80
2022/06/02 03:04:18;;;;;;;27.88;26.48;;;;;;;20.29;45.37;101893.81;5036500;28;20071;-80
2022/06/02 03:06:44;;;;;;;27.73;26.13;;;;;;;20.28;45.29;101887.47;5036432;28;20520;-80
2022/06/02 03:09:24;;;;;;;28.80;27.30;;;;;;;20.27;45.44;101891.34;5037069;28;20037;-80
2022/06/02 03:11:52;;;;;;;27.85;26.35;;;;;;;20.27;45.68;101896.81;5036794;28;20107;-79
2022/06/02 03:14:50;;;;;;;30.02;28.35;;;;;;;20.26;45.47;101899.84;5036208;28;20060;-80
2022/06/02 03:17:28;;;;;;;29.08;27.50;;;;;;;20.27;45.31;101902.31;5034916;28;20063;-79
2022/06/02 03:20:18;;;;;;;28.65;27.15;;;;;;;20.26;45.41;101900.69;5036355;28;20446;-80
2022/06/02 03:22:46;;;;;;;29.40;27.75;;;;;;;20.28;45.60;101911.34;5036129;28;20032;-81
2022/06/02 03:25:26;;;;;;;29.50;27.90;;;;;;;20.25;45.28;101899.03;5035977;28;20416;-79
2022/06/02 03:28:16;;;;;;;28.63;27.13;;;;;;;20.27;45.29;101910.53;5035045;28;20075;-81
2022/06/02 03:30:52;;;;;;;29.35;27.85;;;;;;;20.25;45.62;101903.69;5035915;28;20024;-79
2022/06/02 03:33:18;;;;;;;29.17;27.67;;;;;;;20.25;45.42;101901.75;5035851;28;20036;-79
2022/06/02 03:35:49;;;;;;;28.73;27.13;;;;;;;20.24;45.42;101907.53;5036553;28;20030;-82
2022/06/02 03:38:36;;;;;;;29.20;27.70;;;;;;;20.23;45.64;101917.69;5034875;28;20429;-80
2022/06/02 03:41:19;;;;;;;28.55;27.05;;;;;;;20.22;45.48;101909.75;5035386;28;20077;-79
2022/06/02 03:43:57;;;;;;;27.38;25.98;;;;;;;20.22;45.60;101916.03;5035056;28;20481;-79
2022/06/02 03:46:45;;;;;;;27.55;26.05;;;;;;;20.23;45.50;101925.09;5035865;28;20064;-80
2022/06/02 03:49:48;;;;;;;30.48;28.75;;;;;;;20.21;45.15;101928.13;5035872;28;20462;-80
2022/06/02 03:52:47;;;;;;;29.77;28.20;;;;;;;20.21;45.37;101924.53;5035091;28;20465;-80
2022/06/02 03:55:34;;;;;;;27.42;26.02;;;;;;;20.20;45.50;101923.72;5035818;28;20500;-80
2022/06/02 03:58:16;;;;;;;28.90;27.40;;;;;;;20.21;45.24;101927.28;5036109;28;20087;-80
2022/06/02 04:00:49;;;;;;;29.02;27.42;;;;;;;20.17;45.56;101935.25;5034598;28;20377;-79
2022/06/02 04:03:42;;;;;;;29.13;27.63;;;;;;;20.17;45.22;101934.44;5035929;28;20052;-80
2022/06/02 04:06:52;;;;;;;28.75;27.25;;;;;;;20.17;45.49;101935.25;5034199;28;20025;-80
2022/06/02 04:09:32;;;;;;;29.25;27.55;;;;;;;20.17;45.30;101945.41;5035203;28;20048;-80
2022/06/02 04:15:21;;;;;;;28.50;26.95;;;;;;;20.14;45.37;101941.31;5035176;28;20087;-78
2022/06/02 04:17:56;;;;;;;28.63;27.23;;;;;;;20.14;45.75;101946.00;5034707;28;20025;-78
2022/06/02 04:21:05;;;;;;;27.88;26.15;;;;;;;20.13;45.78;101939.66;5034016;28;20098;-79
2022/06/02 04:23:48;;;;;;;26.45;25.05;;;;;;;20.14;45.42;101938.56;5033940;28;20033;-81
2022/06/02 04:26:45;;;;;;;27.85;26.35;;;;;;;20.12;45.69;101946.25;5033580;28;20033;-79
2022/06/02 04:29:28;;;;;;;26.85;25.40;;;;;;;20.14;45.17;101940.50;5035646;28;20529;-79
2022/06/02 04:31:54;;;;;;;26.15;24.65;;;;;;;20.13;45.12;101947.88;5039762;28;20032;-80
2022/06/02 04:34:44;;;;;;;27.55;26.05;;;;;;;20.13;45.74;101956.09;5034784;28;20025;-80
2022/06/02 04:37:21;;;;;;;26.95;25.55;;;;;;;20.14;45.23;101946.81;5035009;28;20033;-80
2022/06/02 04:40:03;;;;;;;27.48;26.08;;;;;;;20.15;45.43;101951.19;5034565;28;20132;-79
2022/06/02 04:42:50;;;;;;;26.77;25.38;;;;;;;20.15;45.30;101951.19;5034595;28;20109;-80
2022/06/02 04:45:28;;;;;;;28.52;26.90;;;;;;;20.17;45.48;101951.72;5034463;28;20037;-80
2022/06/02 04:48:21;;;;;;;26.95;25.55;;;;;;;20.18;45.21;101960.78;5034626;28;20458;-80
2022/06/02 04:50:56;;;;;;;26.85;25.42;;;;;;;20.17;45.30;101956.41;5034722;28;20044;-79
2022/06/02 04:53:34;;;;;;;27.70;25.90;;;;;;;20.17;45.37;101964.63;5033092;28;20048;-79
2022/06/02 04:56:25;;;;;;;26.52;25.13;;;;;;;20.17;45.48;101957.22;5034457;28;20484;-79
2022/06/02 04:58:56;;;;;;;27.42;25.95;;;;;;;20.17;45.68;101968.19;5034077;28;20033;-80
2022/06/02 05:01:43;;;;;;;29.38;27.77;;;;;;;20.17;45.28;101957.22;5034511;28;20057;-79
2022/06/02 05:04:08;;;;;;;26.85;25.45;;;;;;;20.19;45.45;101960.50;5034799;28;20033;-79
2022/06/02 05:06:48;;;;;;;27.00;25.60;;;;;;;20.20;44.98;101964.06;5033000;28;20485;-78
2022/06/02 05:09:33;;;;;;;28.45;26.92;;;;;;;20.21;45.52;101958.31;5034437;28;20064;-80
2022/06/02 05:12:17;;;;;;;27.50;26.10;;;;;;;20.22;45.14;101964.63;5034061;28;20038;-79
2022/06/02 05:14:54;;;;;;;28.42;26.92;;;;;;;20.22;45.28;101970.09;5033631;28;20374;-79
2022/06/02 05:17:57;;;;;;;28.48;26.88;;;;;;;20.24;45.32;101956.94;5033107;28;20025;-76
2022/06/02 05:20:32;;;;;;;28.25;26.70;;;;;;;20.23;45.43;101956.09;5033907;28;20029;-78
2022/06/02 05:23:20;;;;;;;29.52;28.02;;;;;;;20.23;45.39;101956.09;5033633;28;20037;-79
2022/06/02 05:25:45;;;;;;;;;;;;;;;20.25;45.50;101962.13;5033835;28;20047;-79
2022/06/02 05:28:13;;;;;;;27.13;25.63;;;;;;;20.28;45.64;101963.50;5033781;28;19909;-76
2022/06/02 05:30:42;;;;;;;28.20;26.17;;;;;;;20.35;47.76;101963.22;5033901;28;20025;-78
2022/06/02 05:33:33;;;;;;;27.35;25.75;;;;;;;20.35;47.81;101969.50;5033381;28;20030;-78
2022/06/02 05:36:20;;;;;;;29.48;27.23;;;;;;;20.31;47.63;101962.97;5029957;28;20030;-79
2022/06/02 05:39:14;;;;;;;28.25;26.77;;;;;;;20.31;47.41;101963.78;5032529;28;20030;-79
2022/06/02 05:42:02;;;;;;;28.63;26.92;;;;;;;20.31;46.96;101965.69;5033628;28;20048;-78
2022/06/02 05:44:59;;;;;;;29.42;27.80;;;;;;;20.32;46.59;101972.81;5033599;28;20457;-78
2022/06/02 05:47:56;;;;;;;30.30;28.60;;;;;;;20.34;46.72;101967.06;5032238;28;20550;-78
2022/06/02 05:50:47;;;;;;;29.45;27.67;;;;;;;20.31;46.31;101973.94;5034127;28;20503;-79
2022/06/02 05:53:24;;;;;;;28.73;27.02;;;;;;;20.31;46.97;101973.94;5033741;28;20057;-78
2022/06/02 05:56:06;;;;;;;28.63;27.00;;;;;;;20.31;46.47;101984.91;5033581;28;20068;-80
2022/06/02 05:58:50;;;;;;;29.60;27.88;;;;;;;20.29;47.52;101993.41;5033364;28;20469;-78
2022/06/02 06:01:52;;;;;;;30.05;28.02;;;;;;;20.30;47.17;101986.00;5034426;28;20033;-78
2022/06/02 06:04:26;;;;;;;29.50;27.80;;;;;;;20.30;46.96;101997.78;5037556;28;20037;-80
2022/06/02 06:06:57;;;;;;;29.33;27.63;;;;;;;20.34;47.46;102000.00;5037464;28;20037;-81
2022/06/02 06:09:48;;;;;;;29.98;28.05;;;;;;;20.38;47.47;102003.81;5037753;28;20033;-80
2022/06/02 06:12:34;;;;;;;28.98;26.88;;;;;;;20.37;47.65;102004.91;5037893;28;20033;-80
2022/06/02 06:15:18;;;;;;;29.63;27.38;;;;;;;20.38;47.05;102009.28;5037584;28;20033;-80
2022/06/02 06:18:06;;;;;;;27.25;25.85;;;;;;;20.39;47.51;102014.50;5037013;28;20397;-78
2022/06/02 06:20:37;;;;;;;30.77;28.73;;;;;;;20.45;46.82;102013.38;5037047;28;20036;-78
2022/06/02 06:23:03;;;;;;;32.60;30.33;;;;;;;20.49;47.27;102010.94;5035487;28;20049;-78
2022/06/02 06:25:57;;;;;;;32.45;30.25;;;;;;;20.49;46.63;102019.97;5035578;28;20108;-81
2022/06/02 06:28:23;;;;;;;30.35;28.42;;;;;;;20.45;46.26;102024.38;5037048;28;20033;-78
2022/06/02 06:31:30;;;;;;;31.98;29.90;;;;;;;20.41;46.58;102014.22;5044475;28;20045;-85
2022/06/02 06:34:10;;;;;;;30.30;28.30;;;;;;;20.40;47.00;102015.34;5039716;28;20123;-80
2022/06/02 06:37:07;;;;;;;30.38;28.50;;;;;;;20.37;47.43;102022.19;5036916;28;20037;-87
2022/06/02 06:40:02;;;;;;;30.88;28.77;;;;;;;20.40;46.69;102031.78;5034610;28;20114;-80
2022/06/02 06:42:42;;;;;;;32.38;30.33;;;;;;;20.36;46.41;102031.53;5035628;28;20076;-81
2022/06/02 06:45:18;;;;;;;30.42;28.48;;;;;;;20.39;46.99;102027.41;5036807;28;20454;-81
2022/06/02 06:47:58;;;;;;;31.50;29.25;;;;;;;20.41;46.65;102030.69;5036163;28;20040;-79
2022/06/02 06:50:39;;;;;;;29.63;27.73;;;;;;;20.38;46.17;102037.56;5036509;28;20101;-84
2022/06/02 06:53:17;;;;;;;29.52;27.67;;;;;;;20.38;46.16;102040.28;5036690;28;20025;-81
2022/06/02 06:56:02;;;;;;;29.10;27.50;;;;;;;20.38;46.03;102037.56;5036292;28;20021;-81
2022/06/02 06:59:17;;;;;;;30.83;28.88;;;;;;;20.43;46.10;102037.53;5035768;28;20084;-82
2022/06/02 07:02:01;;;;;;;29.05;27.02;;;;;;;20.46;45.53;102041.66;5035822;28;20079;-81
2022/06/02 07:04:39;;;;;;;30.40;28.60;;;;;;;20.48;45.92;102044.94;5035847;28;20041;-82
2022/06/02 07:07:23;;;;;;;28.77;27.25;;;;;;;20.54;45.81;102049.34;5035990;28;20115;-82
2022/06/02 07:10:01;;;;;;;29.23;27.63;;;;;;;20.57;46.12;102053.47;5035945;28;20025;-81
2022/06/02 07:12:50;;;;;;;31.23;29.35;;;;;;;20.54;45.76;102052.09;5035124;28;20056;-82
2022/06/02 07:15:45;;;;;;;28.95;27.27;;;;;;;20.56;45.44;102060.88;5034969;28;20082;-84
2022/06/02 07:18:24;;;;;;;30.73;28.75;;;;;;;20.59;46.17;102056.75;5034507;28;20049;-83
2022/06/02 07:21:08;;;;;;;28.55;26.95;;;;;;;20.59;46.02;102059.50;5034698;28;20063;-83
2022/06/02 07:24:07;;;;;;;31.58;29.88;;;;;;;20.58;46.35;102060.59;5035205;28;20029;-84
2022/06/02 07:26:41;;;;;;;30.67;28.85;;;;;;;20.62;46.41;102067.19;5035961;28;20489;-82
2022/06/02 07:29:26;;;;;;;29.98;28.25;;;;;;;20.64;46.24;102068.56;5035185;28;20061;-82
2022/06/02 07:32:22;;;;;;;28.08;26.58;;;;;;;20.66;46.22;102069.13;5035463;28;20484;-83
2022/06/02 07:35:25;;;;;;;29.60;28.00;;;;;;;20.63;45.40;102071.56;5035275;28;20037;-80
2022/06/02 07:38:16;;;;;;;30.02;28.33;;;;;;;20.63;44.49;102079.81;5036040;28;20041;-82
2022/06/02 07:41:04;;;;;;;31.20;29.40;;;;;;;20.59;45.05;102076.81;5035694;28;20111;-79
2022/06/02 07:44:05;;;;;;;29.90;28.10;;;;;;;20.53;44.76;102080.63;5035268;28;20029;-84
2022/06/02 07:46:58;;;;;;;30.70;28.92;;;;;;;20.49;44.39;102069.38;5035288;28;20084;-82
2022/06/02 07:49:37;;;;;;;32.05;30.15;;;;;;;20.49;44.06;102077.63;5033685;28;20033;-83
2022/06/02 07:52:11;;;;;;;30.20;28.35;;;;;;;20.46;43.93;102074.59;5035307;28;20056;-79
2022/06/02 07:55:03;;;;;;;31.67;29.88;;;;;;;20.43;44.18;102067.72;5035337;28;20044;-78
2022/06/02 07:57:50;;;;;;;31.73;29.58;;;;;;;20.45;44.53;102072.94;5034236;28;20100;-78
2022/06/02 08:00:19;;;;;;;30.50;28.80;;;;;;;20.45;45.27;102068.28;5034956;28;20018;-80
2022/06/02 08:03:05;;;;;;;31.50;29.70;;;;;;;20.52;44.22;102068.00;5035030;28;20044;-86
2022/06/02 08:05:43;;;;;;;30.77;28.98;;;;;;;20.56;44.25;102069.09;5034082;28;20386;-79
2022/06/02 08:08:45;;;;;;;29.85;28.05;;;;;;;20.56;44.08;102063.63;5035408;28;20066;-89
2022/06/02 08:11:23;;;;;;;30.70;28.77;;;;;;;20.59;44.58;102065.84;5034448;28;20041;-79
2022/06/02 08:13:48;;;;;;;;;;;;;;;20.57;44.73;102065.28;5034572;28;20065;-80
2022/06/02 08:16:20;;;;;;;29.75;27.95;;;;;;;20.61;44.47;102066.34;5034665;28;19972;-80
2022/06/02 08:19:10;;;;;;;32.30;30.33;;;;;;;20.63;44.88;102066.09;5034814;28;20029;-77
2022/06/02 08:21:46;;;;;;;30.38;28.48;;;;;;;20.61;43.87;102060.03;5034605;28;20462;-80
2022/06/02 08:24:30;;;;;;;30.67;28.63;;;;;;;20.58;43.71;102068.84;5034698;28;20048;-78
2022/06/02 08:27:01;;;;;;;30.52;28.65;;;;;;;20.56;44.10;102069.09;5034810;28;20033;-78
2022/06/02 08:29:38;;;;;;;30.55;28.80;;;;;;;20.61;44.78;102069.09;5035433;28;20029;-81
2022/06/02 08:32:27;;;;;;;29.33;27.65;;;;;;;20.59;44.98;102068.56;5039441;28;20037;-78
2022/06/02 08:35:23;;;;;;;29.52;27.77;;;;;;;20.62;45.25;102073.50;5038102;28;20026;-78
2022/06/02 08:37:51;;;;;;;30.80;29.15;;;;;;;20.67;45.01;102069.94;5034059;28;20048;-79
2022/06/02 08:40:35;;;;;;;;;;;;;;;20.65;45.13;102077.63;5034873;28;20496;-79
2022/06/02 08:43:33;;;;;;;28.25;26.75;;;;;;;20.61;45.37;102082.81;5033948;28;20358;-81
2022/06/02 08:46:49;;;;;;;29.27;27.67;;;;;;;20.65;45.22;102083.94;5033169;28;20028;-79
2022/06/02 08:49:49;;;;;;;30.00;28.38;;;;;;;20.66;43.88;102088.34;5023772;28;20038;-79
2022/06/02 08:52:54;;;;;;;29.30;27.58;;;;;;;20.71;44.48;102084.72;5033804;28;20029;-76
2022/06/02 08:55:44;;;;;;;29.02;27.33;;;;;;;20.72;44.33;102078.97;5033824;28;20381;-77
2022/06/02 08:58:11;;;;;;;29.80;28.10;;;;;;;20.71;43.44;102079.22;5033818;28;20489;-78
2022/06/02 09:01:04;;;;;;;29.73;28.05;;;;;;;20.68;43.83;102077.06;5033772;28;20034;-82
2022/06/02 09:03:50;;;;;;;30.33;28.73;;;;;;;20.69;43.14;102071.28;5034062;28;20029;-79
2022/06/02 09:06:25;;;;;;;30.88;29.08;;;;;;;20.70;44.18;102077.59;5033877;28;20469;-77
2022/06/02 09:09:39;;;;;;;31.83;29.98;;;;;;;20.72;44.31;102086.38;5033736;28;20489;-80
2022/06/02 09:12:22;;;;;;;31.95;30.15;;;;;;;20.78;43.08;102089.94;5031718;28;20088;-78
2022/06/02 09:15:06;;;;;;;30.67;28.85;;;;;;;20.74;43.61;102086.94;5031924;28;20057;-79
2022/06/02 09:17:47;;;;;;;30.08;28.38;;;;;;;20.77;43.00;102085.56;5034171;28;20033;-77
2022/06/02 09:20:28;;;;;;;29.40;27.83;;;;;;;20.74;43.31;102087.75;5032490;28;20073;-80
2022/06/02 09:23:12;;;;;;;30.70;28.95;;;;;;;20.77;43.19;102080.06;5033217;28;20455;-84
2022/06/02 09:25:59;;;;;;;31.02;29.27;;;;;;;20.74;43.03;102081.44;5033345;28;20492;-76
2022/06/02 09:29:03;;;;;;;29.63;28.02;;;;;;;20.66;43.05;102074.59;5033352;28;20445;-80
2022/06/02 09:31:59;;;;;;;30.33;28.63;;;;;;;20.72;44.05;102078.16;5032250;28;20053;-74
2022/06/02 09:34:36;;;;;;;30.65;28.75;;;;;;;20.71;44.10;102071.84;5033310;28;20033;-75
2022/06/02 09:37:21;;;;;;;29.20;27.60;;;;;;;20.69;44.31;102074.03;5032341;28;20048;-76
2022/06/02 09:40:24;;;;;;;31.02;29.35;;;;;;;20.77;44.35;102074.56;5033324;28;20108;-76
2022/06/02 09:43:04;;;;;;;31.23;29.48;;;;;;;20.73;43.28;102079.78;5033375;28;20033;-75
2022/06/02 09:46:02;;;;;;;29.10;27.60;;;;;;;20.72;43.99;102064.44;5032028;28;20116;-76
2022/06/02 09:48:48;;;;;;;30.17;28.38;;;;;;;20.71;44.06;102069.09;5033192;28;20033;-76
2022/06/02 09:51:38;;;;;;;30.90;29.17;;;;;;;20.79;43.54;102073.19;5033233;28;20033;-75
2022/06/02 09:54:25;;;;;;;29.48;27.88;;;;;;;20.76;43.50;102068.25;5033013;28;20030;-76
2022/06/02 09:57:55;;;;;;;30.15;28.45;;;;;;;20.73;43.83;102069.63;5031793;28;20064;-77
2022/06/02 10:00:19;;;;;;;30.27;28.58;;;;;;;20.73;44.00;102072.38;5032740;28;20064;-80
2022/06/02 10:03:22;;;;;;;31.88;30.08;;;;;;;20.56;42.41;102065.53;5033156;28;20121;-76
2022/06/02 10:05:48;;;;;;;31.15;29.45;;;;;;;20.62;42.30;102065.25;5032871;28;20029;-77
2022/06/02 10:08:24;;;;;;;31.40;29.60;;;;;;;20.67;41.89;102058.94;5033059;28;20040;-80
2022/06/02 10:11:18;;;;;;;31.05;29.35;;;;;;;20.70;43.22;102061.13;5032572;28;20496;-78
2022/06/02 10:14:04;;;;;;;29.20;27.60;;;;;;;20.70;43.40;102064.69;5032864;28;20036;-77
2022/06/02 10:16:55;;;;;;;30.08;28.48;;;;;;;20.74;43.49;102056.72;5031740;28;20053;-78
2022/06/02 10:19:47;;;;;;;30.15;28.52;;;;;;;20.75;44.05;102052.88;5032825;28;20033;-79
2022/06/02 10:22:30;;;;;;;31.52;29.67;;;;;;;20.79;44.01;102059.47;5031922;28;20037;-81
2022/06/02 10:25:20;;;;;;;30.30;28.45;;;;;;;20.83;42.97;102057.78;5033075;28;20033;-79
2022/06/02 10:27:57;;;;;;;30.00;28.40;;;;;;;20.83;43.58;102055.03;5031770;28;20079;-82
2022/06/02 10:30:54;;;;;;;30.53;28.90;;;;;;;20.84;43.24;102053.09;5032870;28;20029;-78
2022/06/02 10:33:38;;;;;;;31.67;29.77;;;;;;;20.85;43.32;102061.06;5031916;28;20377;-79
2022/06/02 10:36:40;;;;;;;28.95;27.45;;;;;;;20.84;43.78;102053.09;5033928;28;20485;-79
2022/06/02 10:39:15;;;;;;;30.02;28.42;;;;;;;20.86;43.94;102050.91;5032605;28;20413;-79
2022/06/02 10:41:46;;;;;;;29.73;28.13;;;;;;;20.85;43.86;102052.84;5032735;28;20060;-81
2022/06/02 10:44:17;;;;;;;31.85;30.08;;;;;;;20.87;43.84;102044.34;5032767;28;20511;-81
2022/06/02 10:47:03;;;;;;;30.42;28.80;;;;;;;20.93;42.12;102048.69;5032512;28;20034;-79
2022/06/02 10:49:53;;;;;;;30.48;28.73;;;;;;;20.90;43.77;102043.75;5035765;28;20159;-79
2022/06/02 10:52:37;;;;;;;31.80;30.10;;;;;;;20.93;43.15;102045.94;5036038;28;20032;-76
2022/06/02 10:55:36;;;;;;;32.10;30.40;;;;;;;20.94;43.56;102050.31;5035664;28;20476;-80
2022/06/02 10:58:23;;;;;;;29.88;28.27;;;;;;;20.91;44.14;102045.41;5036642;28;20398;-82
2022/06/02 11:01:06;;;;;;;30.52;28.92;;;;;;;20.92;44.00;102045.13;5036241;28;20458;-83
2022/06/02 11:03:50;;;;;;;27.83;26.42;;;;;;;20.92;44.42;102045.13;5036395;28;20055;-82
2022/06/02 11:06:45;;;;;;;32.25;30.52;;;;;;;20.91;43.68;102040.72;5036107;28;20445;-82
2022/06/02 11:09:31;;;;;;;32.38;30.65;;;;;;;20.92;42.71;102045.13;5034889;28;20029;-82
2022/06/02 11:12:27;;;;;;;31.85;30.05;;;;;;;20.91;43.52;102045.41;5036246;28;20371;-81
2022/06/02 11:15:05;;;;;;;31.52;29.80;;;;;;;20.88;44.08;102043.22;5036863;28;20033;-83
2022/06/02 11:17:56;;;;;;;32.08;30.08;;;;;;;20.89;44.25;102044.84;5035894;28;20068;-82
2022/06/02 11:20:30;;;;;;;31.30;29.52;;;;;;;20.89;43.96;102033.84;5035891;28;20029;-83
2022/06/02 11:23:08;;;;;;;32.10;30.30;;;;;;;20.89;44.09;102037.44;5034061;28;20029;-83
2022/06/02 11:26:01;;;;;;;31.13;29.50;;;;;;;20.95;42.68;102032.75;5034103;28;20057;-84
2022/06/02 11:28:42;;;;;;;32.55;30.63;;;;;;;20.94;42.34;102031.09;5034951;28;20374;-83
2022/06/02 11:31:17;;;;;;;29.98;28.27;;;;;;;20.96;41.80;102024.25;5035504;28;20037;-83
2022/06/02 11:34:10;;;;;;;30.73;29.02;;;;;;;20.95;41.57;102030.81;5035817;28;20021;-80
2022/06/02 11:36:42;;;;;;;33.95;31.90;;;;;;;20.99;41.14;102027.50;5035393;28;20041;-83
2022/06/02 11:39:31;;;;;;;30.02;28.42;;;;;;;20.97;42.82;102025.06;5035196;28;20465;-80
2022/06/02 11:42:27;;;;;;;30.80;29.10;;;;;;;20.96;42.77;102017.91;5035378;28;20029;-82
2022/06/02 11:45:10;;;;;;;32.20;30.50;;;;;;;20.96;43.21;102013.25;5049064;28;20034;-78
2022/06/02 11:47:53;;;;;;;30.20;28.58;;;;;;;20.96;43.71;102017.91;5035403;28;20064;-78
2022/06/02 11:50:33;;;;;;;30.77;29.08;;;;;;;20.99;44.31;102016.53;5035443;28;20037;-81
2022/06/02 11:53:16;;;;;;;31.23;29.55;;;;;;;21.03;43.56;102010.19;5034114;28;20120;-78
2022/06/02 11:56:12;;;;;;;31.48;29.77;;;;;;;21.01;42.42;102003.34;5034691;28;20389;-79
2022/06/02 11:59:19;;;;;;;31.40;29.70;;;;;;;21.06;41.33;102006.03;5034768;28;20164;-79
2022/06/02 12:01:58;;;;;;;30.38;28.85;;;;;;;21.04;42.77;101997.25;5033131;28;20530;-78
2022/06/02 12:04:35;;;;;;;31.40;29.70;;;;;;;21.06;42.31;101993.13;5034769;28;20079;-81
2022/06/02 12:07:40;;;;;;;31.35;29.65;;;;;;;21.04;42.42;101989.88;5033375;28;20163;-86
2022/06/02 12:10:30;;;;;;;31.90;30.20;;;;;;;21.06;43.14;101989.56;5033457;28;20077;-79
2022/06/02 12:13:07;;;;;;;31.67;29.98;;;;;;;21.09;42.00;101984.34;5034590;28;20117;-78
2022/06/02 12:16:12;;;;;;;32.13;30.25;;;;;;;21.07;38.98;101981.06;5035173;28;20036;-77
2022/06/02 12:19:02;;;;;;;31.30;29.70;;;;;;;21.08;41.59;101973.63;5034683;28;20080;-80
2022/06/02 12:21:42;;;;;;;31.15;29.27;;;;;;;21.09;42.30;101967.00;5034590;28;20083;-82
2022/06/02 12:24:26;;;;;;;32.38;30.58;;;;;;;21.11;41.51;101964.81;5034912;28;20033;-80
2022/06/02 12:27:30;;;;;;;31.80;30.00;;;;;;;21.10;42.38;101958.50;5034926;28;20033;-81
2022/06/02 12:30:08;;;;;;;31.90;30.10;;;;;;;21.09;42.36;101956.03;5033651;28;20033;-76
2022/06/02 12:32:55;;;;;;;30.40;28.80;;;;;;;21.10;40.66;101964.00;5034887;28;20029;-77
2022/06/02 12:35:48;;;;;;;32.40;30.63;;;;;;;21.18;40.01;101959.81;5035496;28;20030;-76